createdAt,value
2023-02-22T00:01:35.298Z,39.67
2023-02-22T00:03:39.040Z,34.78
2023-02-22T00:05:40.822Z,35.20
2023-02-22T00:07:44.662Z,36.65
2023-02-22T00:09:46.131Z,34.53
2023-02-22T00:11:48.786Z,34.75
2023-02-22T00:13:50.692Z,33.55
2023-02-22T00:15:52.147Z,35.72
2023-02-22T00:17:54.941Z,35.45
2023-02-22T00:19:56.398Z,37.40
2023-02-22T00:21:58.098Z,35.35
2023-02-22T00:23:59.604Z,34.35
2023-02-22T00:26:01.285Z,35.60
2023-02-22T00:28:04.958Z,37.10
2023-02-22T00:30:07.263Z,32.08
2023-02-22T00:32:09.085Z,38.80
2023-02-22T00:34:10.591Z,33.42
2023-02-22T00:36:13.701Z,34.95
2023-02-22T00:38:17.857Z,33.80
2023-02-22T00:40:23.260Z,34.88
2023-02-22T00:42:24.738Z,31.05
2023-02-22T00:44:27.441Z,38.17
2023-02-22T00:46:28.917Z,35.70
2023-02-22T00:48:30.400Z,31.85
2023-02-22T00:50:32.937Z,34.70
2023-02-22T00:52:36.046Z,31.38
2023-02-22T00:54:37.565Z,29.20
2023-02-22T00:56:39.306Z,30.25
2023-02-22T00:58:40.815Z,29.80
2023-02-22T01:00:43.628Z,30.30
2023-02-22T01:02:45.223Z,29.02
2023-02-22T01:04:46.690Z,30.33
2023-02-22T01:06:48.286Z,31.08
2023-02-22T01:08:49.757Z,28.15
2023-02-22T01:10:52.609Z,27.67
2023-02-22T01:12:55.385Z,30.80
2023-02-22T01:14:58.611Z,29.13
2023-02-22T01:17:00.128Z,29.77
2023-02-22T01:19:01.609Z,29.77
2023-02-22T01:21:06.524Z,29.40
2023-02-22T01:23:08.291Z,27.33
2023-02-22T01:25:11.455Z,31.45
2023-02-22T01:27:13.762Z,28.67
2023-02-22T01:29:16.617Z,31.48
2023-02-22T01:31:18.428Z,27.55
2023-02-22T01:33:20.182Z,28.98
2023-02-22T01:35:25.562Z,28.63
2023-02-22T01:37:27.379Z,31.25
2023-02-22T01:39:28.847Z,27.58
2023-02-22T01:41:30.302Z,29.52
2023-02-22T01:43:33.197Z,30.65
2023-02-22T01:45:40.744Z,28.33
2023-02-22T01:47:42.839Z,31.42
2023-02-22T01:49:50.864Z,30.75
2023-02-22T01:51:56.584Z,27.85
2023-02-22T01:54:10.069Z,33.08
2023-02-22T01:56:12.947Z,33.40
2023-02-22T01:58:18.524Z,32.75
2023-02-22T02:00:22.105Z,29.80
2023-02-22T02:02:25.168Z,29.50
2023-02-22T02:04:27.994Z,30.30
2023-02-22T02:06:33.510Z,36.85
2023-02-22T02:08:49.663Z,32.30
2023-02-22T02:10:53.413Z,31.02
2023-02-22T02:12:57.411Z,34.22
2023-02-22T02:15:23.530Z,29.92
2023-02-22T02:17:25.020Z,33.00
2023-02-22T02:19:38.511Z,34.97
2023-02-22T02:21:54.793Z,32.75
2023-02-22T02:24:21.248Z,33.60
2023-02-22T02:26:46.979Z,30.70
2023-02-22T02:29:25.896Z,30.33
2023-02-22T02:31:34.891Z,31.02
2023-02-22T02:33:57.029Z,28.75
2023-02-22T02:36:36.243Z,30.00
2023-02-22T02:38:49.289Z,29.13
2023-02-22T02:41:12.154Z,30.17
2023-02-22T02:43:22.846Z,30.83
2023-02-22T02:45:34.270Z,31.13
2023-02-22T02:47:42.342Z,29.42
2023-02-22T02:49:58.138Z,30.90
2023-02-22T02:52:02.745Z,32.60
2023-02-22T02:54:05.786Z,36.42
2023-02-22T02:56:07.654Z,30.65
2023-02-22T02:58:09.511Z,30.15
2023-02-22T03:00:24.163Z,33.60
2023-02-22T03:02:28.490Z,30.77
2023-02-22T03:04:45.248Z,31.42
2023-02-22T03:07:05.860Z,33.78
2023-02-22T03:09:42.991Z,30.70
2023-02-22T03:12:01.365Z,31.77
2023-02-22T03:14:16.416Z,32.63
2023-02-22T03:16:21.082Z,33.63
2023-02-22T03:18:31.626Z,32.33
2023-02-22T03:20:45.385Z,32.25
2023-02-22T03:22:59.004Z,32.63
2023-02-22T03:25:43.435Z,27.33
2023-02-22T03:27:53.306Z,29.13
2023-02-22T03:30:00.413Z,31.13
2023-02-22T03:32:07.344Z,28.25
2023-02-22T03:34:16.005Z,29.20
2023-02-22T03:36:25.122Z,31.08
2023-02-22T03:38:29.753Z,31.90
2023-02-22T03:40:35.030Z,29.25
2023-02-22T03:42:38.206Z,30.15
2023-02-22T03:44:43.569Z,28.30
2023-02-22T03:46:47.738Z,27.08
2023-02-22T03:49:00.185Z,30.08
2023-02-22T03:51:04.607Z,32.70
2023-02-22T03:53:07.459Z,30.48
2023-02-22T03:55:11.270Z,29.10
2023-02-22T03:57:20.874Z,30.80
2023-02-22T03:59:27.296Z,31.80
2023-02-22T04:01:28.798Z,30.80
2023-02-22T04:03:30.301Z,33.90
2023-02-22T04:05:31.785Z,32.17
2023-02-22T04:07:33.323Z,37.63
2023-02-22T04:09:34.769Z,44.55
2023-02-22T04:11:36.603Z,35.22
2023-02-22T04:13:38.075Z,31.92
2023-02-22T04:15:39.562Z,34.22
2023-02-22T04:17:41.241Z,37.05
2023-02-22T04:19:45.092Z,40.67
2023-02-22T04:21:46.689Z,37.40
2023-02-22T04:23:48.184Z,40.97
2023-02-22T04:25:49.660Z,39.00
2023-02-22T04:27:51.712Z,39.85
2023-02-22T04:29:53.247Z,34.08
2023-02-22T04:31:54.794Z,36.05
2023-02-22T04:33:56.291Z,38.28
2023-02-22T04:35:57.855Z,38.30
2023-02-22T04:37:59.330Z,39.47
2023-02-22T04:40:01.672Z,40.15
2023-02-22T04:42:03.252Z,39.50
2023-02-22T04:44:04.879Z,34.45
2023-02-22T04:46:06.440Z,37.83
2023-02-22T04:48:07.976Z,35.20
2023-02-22T04:50:11.417Z,38.58
2023-02-22T04:52:12.873Z,36.38
2023-02-22T04:54:14.450Z,38.65
2023-02-22T04:56:19.898Z,36.83
2023-02-22T04:58:21.617Z,37.08
2023-02-22T05:00:24.011Z,36.42
2023-02-22T05:02:25.539Z,41.03
2023-02-22T05:04:27.132Z,38.90
2023-02-22T05:06:28.640Z,40.63
2023-02-22T05:08:30.156Z,41.72
2023-02-22T05:10:31.637Z,38.92
2023-02-22T05:12:33.111Z,38.75
2023-02-22T05:14:34.657Z,52.00
2023-02-22T05:16:36.575Z,72.47
2023-02-22T05:18:38.071Z,82.90
2023-02-22T05:20:39.778Z,99.32
2023-02-22T05:22:41.227Z,75.32
2023-02-22T05:24:43.920Z,100.75
2023-02-22T05:26:46.540Z,56.60
2023-02-22T05:28:48.015Z,31.15
2023-02-22T05:30:49.615Z,37.75
2023-02-22T05:32:51.743Z,36.40
2023-02-22T05:34:53.240Z,29.33
2023-02-22T05:36:54.738Z,27.83
2023-02-22T05:38:56.510Z,20.10
2023-02-22T05:40:57.979Z,38.45
2023-02-22T05:43:02.138Z,23.90
2023-02-22T05:45:03.861Z,28.38
2023-02-22T05:47:05.374Z,24.20
2023-02-22T05:49:07.099Z,30.08
2023-02-22T05:51:09.720Z,39.28
2023-02-22T05:53:11.315Z,26.30
2023-02-22T05:55:14.763Z,32.78
2023-02-22T05:57:16.687Z,60.50
2023-02-22T05:59:18.225Z,77.85
2023-02-22T06:01:20.409Z,65.47
2023-02-22T06:03:22.476Z,51.63
2023-02-22T06:05:24.244Z,50.63
2023-02-22T06:07:25.882Z,54.08
2023-02-22T06:09:27.390Z,55.08
2023-02-22T06:11:28.856Z,59.28
2023-02-22T06:13:30.355Z,93.72
2023-02-22T06:15:31.844Z,62.08
2023-02-22T06:17:33.349Z,75.45
2023-02-22T06:19:34.928Z,63.13
2023-02-22T06:21:36.369Z,52.90
2023-02-22T06:23:37.943Z,62.53
2023-02-22T06:25:39.421Z,78.15
2023-02-22T06:27:40.943Z,40.85
2023-02-22T06:29:46.940Z,26.80
2023-02-22T06:31:48.449Z,30.95
2023-02-22T06:33:49.987Z,35.13
2023-02-22T06:35:51.467Z,32.72
2023-02-22T06:37:53.015Z,25.42
2023-02-22T06:39:54.533Z,28.70
2023-02-22T06:41:57.782Z,24.10
2023-02-22T06:43:59.286Z,25.58
2023-02-22T06:46:00.798Z,29.40
2023-02-22T06:48:02.326Z,33.50
2023-02-22T06:50:03.908Z,29.48
2023-02-22T06:52:06.953Z,32.00
2023-02-22T06:54:08.720Z,30.98
2023-02-22T06:56:10.172Z,27.58
2023-02-22T06:58:11.618Z,30.20
2023-02-22T07:00:16.220Z,26.85
2023-02-22T07:02:17.694Z,26.10
2023-02-22T07:04:19.175Z,30.80
2023-02-22T07:06:20.847Z,30.08
2023-02-22T07:08:22.303Z,35.15
2023-02-22T07:10:27.803Z,29.15
2023-02-22T07:12:29.263Z,29.77
2023-02-22T07:14:30.765Z,33.10
2023-02-22T07:16:32.292Z,29.40
2023-02-22T07:18:33.796Z,29.48
2023-02-22T07:20:35.330Z,28.75
2023-02-22T07:22:37.676Z,29.52
2023-02-22T07:24:40.740Z,25.17
2023-02-22T07:26:42.710Z,27.15
2023-02-22T07:28:44.168Z,30.90
2023-02-22T07:30:45.690Z,30.40
2023-02-22T07:32:47.626Z,30.73
2023-02-22T07:34:49.145Z,26.83
2023-02-22T07:36:50.646Z,31.63
2023-02-22T07:38:52.091Z,28.70
2023-02-22T07:40:53.680Z,27.50
2023-02-22T07:42:57.934Z,32.03
2023-02-22T07:44:59.447Z,30.20
2023-02-22T07:47:02.526Z,29.42
2023-02-22T07:49:04.041Z,32.85
2023-02-22T07:51:06.099Z,28.95
2023-02-22T07:53:21.306Z,26.63
2023-02-22T07:55:25.994Z,27.45
2023-02-22T07:57:27.580Z,31.60
2023-02-22T07:59:29.055Z,26.20
2023-02-22T08:01:31.887Z,27.00
2023-02-22T08:03:36.517Z,25.88
2023-02-22T08:05:40.234Z,24.98
2023-02-22T08:07:43.243Z,24.83
2023-02-22T08:09:44.715Z,24.70
2023-02-22T08:11:46.182Z,23.30
2023-02-22T08:13:47.660Z,27.45
2023-02-22T08:15:52.051Z,27.65
2023-02-22T08:17:53.680Z,23.42
2023-02-22T08:19:55.321Z,28.13
2023-02-22T08:21:56.763Z,28.20
2023-02-22T08:23:58.281Z,27.98
2023-02-22T08:26:10.916Z,26.50
2023-02-22T08:28:15.173Z,29.50
2023-02-22T08:30:23.168Z,25.02
2023-02-22T08:32:24.923Z,28.63
2023-02-22T08:34:27.264Z,24.77
2023-02-22T08:36:29.541Z,25.00
2023-02-22T08:38:32.662Z,24.70
2023-02-22T08:40:37.031Z,28.05
2023-02-22T08:42:38.909Z,31.73
2023-02-22T08:44:41.002Z,30.48
2023-02-22T08:46:42.503Z,25.27
2023-02-22T08:49:03.066Z,26.77
2023-02-22T08:51:04.650Z,29.88
2023-02-22T08:53:06.148Z,35.63
2023-02-22T08:55:07.990Z,27.27
2023-02-22T08:57:09.466Z,25.63
2023-02-22T08:59:11.046Z,30.73
2023-02-22T09:01:14.043Z,29.83
2023-02-22T09:03:17.078Z,27.50
2023-02-22T09:05:19.790Z,24.58
2023-02-22T09:07:21.316Z,26.67
2023-02-22T09:09:22.790Z,30.92
2023-02-22T09:11:24.288Z,26.98
2023-02-22T09:13:25.833Z,22.38
2023-02-22T09:15:27.989Z,28.35
2023-02-22T09:17:29.496Z,26.73
2023-02-22T09:19:31.066Z,28.75
2023-02-22T09:21:32.555Z,25.63
2023-02-22T09:23:34.740Z,30.95
2023-02-22T09:25:36.251Z,28.05
2023-02-22T09:27:38.796Z,29.15
2023-02-22T09:29:40.458Z,30.95
2023-02-22T09:31:41.996Z,27.30
2023-02-22T09:33:44.310Z,26.60
2023-02-22T09:35:49.808Z,28.10
2023-02-22T09:37:51.350Z,25.73
2023-02-22T09:39:52.905Z,26.20
2023-02-22T09:42:13.515Z,26.73
2023-02-22T09:44:39.125Z,28.08
2023-02-22T09:46:45.639Z,27.95
2023-02-22T09:49:07.843Z,24.95
2023-02-22T09:51:17.088Z,28.15
2023-02-22T09:53:29.551Z,23.55
2023-02-22T09:55:51.163Z,28.85
2023-02-22T09:57:55.490Z,28.50
2023-02-22T10:00:13.615Z,28.95
2023-02-22T10:02:31.499Z,26.63
2023-02-22T10:05:08.351Z,27.30
2023-02-22T10:07:25.994Z,29.20
2023-02-22T10:09:30.359Z,28.85
2023-02-22T10:11:37.628Z,28.02
2023-02-22T10:13:54.292Z,26.85
2023-02-22T10:16:20.363Z,30.15
2023-02-22T10:18:40.553Z,27.08
2023-02-22T10:21:02.774Z,26.75
2023-02-22T10:23:16.420Z,25.77
2023-02-22T10:25:20.082Z,28.48
2023-02-22T10:27:29.187Z,25.05
2023-02-22T10:29:41.632Z,25.25
2023-02-22T10:31:49.038Z,23.63
2023-02-22T10:34:03.253Z,26.50
2023-02-22T10:36:05.065Z,27.00
2023-02-22T10:38:20.145Z,26.33
2023-02-22T10:40:32.172Z,24.90
2023-02-22T10:42:33.689Z,25.48
2023-02-22T10:44:37.527Z,23.85
2023-02-22T10:46:42.007Z,24.60
2023-02-22T10:48:47.549Z,26.85
2023-02-22T10:50:50.502Z,22.27
2023-02-22T10:52:51.981Z,28.25
2023-02-22T10:55:13.728Z,27.05
2023-02-22T10:57:23.037Z,25.45
2023-02-22T10:59:39.358Z,24.48
2023-02-22T11:01:41.061Z,25.52
2023-02-22T11:03:42.620Z,27.30
2023-02-22T11:05:44.700Z,24.05
2023-02-22T11:07:46.207Z,26.63
2023-02-22T11:09:52.583Z,35.72
2023-02-22T11:12:16.534Z,28.80
2023-02-22T11:14:29.466Z,24.65
2023-02-22T11:16:36.348Z,24.63
2023-02-22T11:18:38.095Z,24.40
2023-02-22T11:20:39.822Z,22.50
2023-02-22T11:22:42.576Z,23.70
2023-02-22T11:24:51.094Z,24.58
2023-02-22T11:26:59.602Z,26.27
2023-02-22T11:29:11.099Z,28.05
2023-02-22T11:31:24.561Z,24.13
2023-02-22T11:33:29.257Z,21.63
2023-02-22T11:35:39.272Z,23.48
2023-02-22T11:37:40.850Z,20.33
2023-02-22T11:39:43.805Z,23.88
2023-02-22T11:41:45.350Z,23.10
2023-02-22T11:43:49.245Z,24.98
2023-02-22T11:46:02.014Z,23.60
2023-02-22T11:48:07.376Z,22.67
2023-02-22T11:50:22.893Z,21.45
2023-02-22T11:52:28.205Z,25.73
2023-02-22T11:55:01.885Z,25.58
2023-02-22T11:57:26.651Z,20.85
2023-02-22T11:59:41.604Z,29.85
2023-02-22T12:01:54.471Z,23.33
2023-02-22T12:04:28.302Z,21.70
2023-02-22T12:06:58.314Z,21.63
2023-02-22T12:09:24.464Z,19.10
2023-02-22T12:11:50.833Z,21.23
2023-02-22T12:14:01.612Z,21.58
2023-02-22T12:16:12.989Z,20.25
2023-02-22T12:18:33.137Z,22.52
2023-02-22T12:20:51.863Z,23.13
2023-02-22T12:23:12.790Z,22.75
2023-02-22T12:25:24.952Z,26.77
2023-02-22T12:27:44.128Z,19.40
2023-02-22T12:29:51.303Z,20.45
2023-02-22T12:32:14.351Z,21.60
2023-02-22T12:34:27.232Z,20.77
2023-02-22T12:36:40.234Z,21.63
2023-02-22T12:38:47.407Z,21.73
2023-02-22T12:41:08.757Z,21.52
2023-02-22T12:43:26.272Z,20.52
2023-02-22T12:45:34.138Z,21.58
2023-02-22T12:47:45.819Z,24.42
2023-02-22T12:50:03.321Z,20.33
2023-02-22T12:52:39.057Z,26.75
2023-02-22T12:54:50.422Z,25.48
2023-02-22T12:57:13.648Z,21.33
2023-02-22T12:59:19.247Z,20.10
2023-02-22T13:01:25.874Z,22.73
2023-02-22T13:03:40.617Z,30.65
2023-02-22T13:05:43.263Z,20.40
2023-02-22T13:08:02.499Z,23.85
2023-02-22T13:10:32.019Z,26.40
2023-02-22T13:12:46.251Z,24.83
2023-02-22T13:14:54.660Z,22.50
2023-02-22T13:17:14.893Z,22.13
2023-02-22T13:19:30.740Z,23.25
2023-02-22T13:21:44.862Z,26.30
2023-02-22T13:23:49.090Z,19.38
2023-02-22T13:26:01.116Z,20.33
2023-02-22T13:28:13.461Z,23.85
2023-02-22T13:30:34.963Z,21.70
2023-02-22T13:32:54.639Z,22.38
2023-02-22T13:35:20.977Z,18.40
2023-02-22T13:37:37.840Z,28.88
2023-02-22T13:39:54.485Z,25.25
2023-02-22T13:42:09.982Z,23.70
2023-02-22T13:44:36.773Z,23.00
2023-02-22T13:47:11.485Z,24.75
2023-02-22T13:49:31.565Z,21.80
2023-02-22T13:51:38.027Z,22.77
2023-02-22T13:53:47.519Z,22.52
2023-02-22T13:55:53.786Z,21.55
2023-02-22T13:58:07.680Z,20.85
2023-02-22T14:00:40.954Z,22.92
2023-02-22T14:03:06.782Z,22.27
2023-02-22T14:05:46.688Z,18.48
2023-02-22T14:07:48.885Z,21.40
2023-02-22T14:09:59.153Z,26.25
2023-02-22T14:12:00.641Z,22.73
2023-02-22T14:14:02.061Z,20.27
2023-02-22T14:16:06.287Z,23.50
2023-02-22T14:18:16.928Z,21.85
2023-02-22T14:20:29.975Z,23.15
2023-02-22T14:22:31.744Z,20.60
2023-02-22T14:24:44.510Z,19.42
2023-02-22T14:27:04.704Z,21.00
2023-02-22T14:29:09.147Z,21.40
2023-02-22T14:31:25.783Z,20.80
2023-02-22T14:33:59.377Z,18.23
2023-02-22T14:36:01.014Z,21.15
2023-02-22T14:38:04.054Z,20.35
2023-02-22T14:40:26.842Z,20.02
2023-02-22T14:42:35.880Z,23.77
2023-02-22T14:44:43.653Z,21.38
2023-02-22T14:46:50.022Z,19.37
2023-02-22T14:48:59.765Z,19.73
2023-02-22T14:51:19.094Z,20.45
2023-02-22T14:53:44.260Z,22.40
2023-02-22T14:56:03.889Z,20.02
2023-02-22T14:58:10.810Z,21.40
2023-02-22T15:00:22.784Z,20.60
2023-02-22T15:02:26.038Z,19.67
2023-02-22T15:04:31.015Z,22.55
2023-02-22T15:06:35.229Z,19.50
2023-02-22T15:08:41.614Z,20.48
2023-02-22T15:10:48.300Z,21.35
2023-02-22T15:13:08.633Z,23.75
2023-02-22T15:15:22.738Z,21.10
2023-02-22T15:17:24.975Z,21.20
2023-02-22T15:19:29.027Z,19.98
2023-02-22T15:21:32.125Z,19.40
2023-02-22T15:23:49.010Z,21.77
2023-02-22T15:25:50.908Z,19.90
2023-02-22T15:27:52.510Z,24.00
2023-02-22T15:30:04.522Z,23.52
2023-02-22T15:32:36.687Z,28.17
2023-02-22T15:34:38.228Z,21.33
2023-02-22T15:36:39.807Z,20.00
2023-02-22T15:38:43.179Z,26.17
2023-02-22T15:40:45.594Z,23.52
2023-02-22T15:42:58.364Z,22.02
2023-02-22T15:44:59.914Z,20.48
2023-02-22T15:47:01.434Z,21.70
2023-02-22T15:49:20.553Z,25.05
2023-02-22T15:51:22.068Z,23.25
2023-02-22T15:53:28.819Z,25.58
2023-02-22T15:55:36.975Z,20.92
2023-02-22T15:57:38.513Z,21.98
2023-02-22T15:59:43.740Z,26.83
2023-02-22T16:01:48.056Z,26.58
2023-02-22T16:03:55.516Z,20.13
2023-02-22T16:05:58.500Z,29.50
2023-02-22T16:08:00.024Z,24.30
2023-02-22T16:10:08.982Z,22.42
2023-02-22T16:12:22.714Z,19.58
2023-02-22T16:14:30.309Z,21.70
2023-02-22T16:16:34.901Z,22.90
2023-02-22T16:18:41.305Z,20.73
2023-02-22T16:20:42.833Z,22.20
2023-02-22T16:22:51.569Z,22.88
2023-02-22T16:24:54.574Z,24.75
2023-02-22T16:27:10.502Z,22.83
2023-02-22T16:29:26.377Z,20.60
2023-02-22T16:31:34.354Z,23.85
2023-02-22T16:33:35.878Z,23.02
2023-02-22T16:35:37.453Z,22.20
2023-02-22T16:37:38.913Z,24.05
2023-02-22T16:39:41.766Z,27.80
2023-02-22T16:41:43.297Z,23.60
2023-02-22T16:43:47.005Z,25.38
2023-02-22T16:45:48.530Z,22.15
2023-02-22T16:47:53.778Z,22.67
2023-02-22T16:49:57.042Z,21.02
2023-02-22T16:52:01.503Z,20.92
2023-02-22T16:54:03.170Z,26.15
2023-02-22T16:56:08.598Z,25.40
2023-02-22T16:58:12.499Z,24.55
2023-02-22T17:00:21.828Z,22.25
2023-02-22T17:02:23.314Z,22.63
2023-02-22T17:04:26.475Z,29.63
2023-02-22T17:06:29.199Z,28.40
2023-02-22T17:08:31.303Z,24.42
2023-02-22T17:10:34.069Z,26.17
2023-02-22T17:12:35.648Z,23.60
2023-02-22T17:14:37.233Z,28.30
2023-02-22T17:16:38.722Z,25.67
2023-02-22T17:18:40.308Z,24.63
2023-02-22T17:20:45.655Z,25.08
2023-02-22T17:22:47.911Z,25.10
2023-02-22T17:24:49.603Z,23.33
2023-02-22T17:26:53.124Z,26.20
2023-02-22T17:28:54.630Z,27.65
2023-02-22T17:31:01.955Z,24.48
2023-02-22T17:33:06.126Z,23.73
2023-02-22T17:35:07.717Z,27.23
2023-02-22T17:37:09.182Z,27.70
2023-02-22T17:39:10.994Z,27.02
2023-02-22T17:41:12.470Z,25.58
2023-02-22T17:43:14.686Z,21.80
2023-02-22T17:45:16.198Z,31.27
2023-02-22T17:47:17.718Z,25.00
2023-02-22T17:49:19.345Z,27.98
2023-02-22T17:51:25.849Z,26.70
2023-02-22T17:53:27.308Z,24.73
2023-02-22T17:55:29.835Z,26.83
2023-02-22T17:57:31.305Z,28.40
2023-02-22T17:59:32.929Z,25.50
2023-02-22T18:01:35.236Z,29.33
2023-02-22T18:03:39.470Z,27.02
2023-02-22T18:05:43.568Z,30.55
2023-02-22T18:07:46.144Z,30.50
2023-02-22T18:09:47.694Z,31.23
2023-02-22T18:11:49.228Z,25.02
2023-02-22T18:13:50.681Z,26.23
2023-02-22T18:15:52.705Z,28.42
2023-02-22T18:17:54.622Z,26.70
2023-02-22T18:19:56.436Z,27.02
2023-02-22T18:22:00.205Z,31.30
2023-02-22T18:24:01.999Z,28.23
2023-02-22T18:26:11.111Z,31.88
2023-02-22T18:28:13.033Z,29.90
2023-02-22T18:30:14.604Z,27.58
2023-02-22T18:32:16.125Z,28.60
2023-02-22T18:34:17.621Z,25.60
2023-02-22T18:36:23.681Z,26.75
2023-02-22T18:38:25.606Z,27.13
2023-02-22T18:40:27.133Z,30.73
2023-02-22T18:42:28.859Z,25.35
2023-02-22T18:44:31.734Z,29.40
2023-02-22T18:46:33.289Z,31.00
2023-02-22T18:48:35.544Z,27.98
2023-02-22T18:50:37.839Z,38.92
2023-02-22T18:52:45.963Z,30.35
2023-02-22T18:54:49.417Z,33.17
2023-02-22T18:56:50.944Z,29.65
2023-02-22T18:58:56.946Z,26.65
2023-02-22T19:01:02.872Z,25.90
2023-02-22T19:03:05.772Z,33.20
2023-02-22T19:05:09.781Z,26.33
2023-02-22T19:07:17.744Z,25.90
2023-02-22T19:09:19.322Z,31.17
2023-02-22T19:11:23.810Z,33.50
2023-02-22T19:13:25.287Z,24.48
2023-02-22T19:15:26.752Z,25.38
2023-02-22T19:17:29.713Z,25.67
2023-02-22T19:19:31.503Z,27.45
2023-02-22T19:21:33.197Z,26.73
2023-02-22T19:23:36.281Z,27.98
2023-02-22T19:25:41.127Z,23.17
2023-02-22T19:27:44.404Z,29.23
2023-02-22T19:29:47.122Z,27.75
2023-02-22T19:31:54.095Z,27.70
2023-02-22T19:33:56.004Z,28.67
2023-02-22T19:35:59.829Z,34.53
2023-02-22T19:38:01.613Z,27.00
2023-02-22T19:40:09.069Z,33.00
2023-02-22T19:42:10.635Z,27.60
2023-02-22T19:44:12.693Z,28.42
2023-02-22T19:46:17.762Z,28.83
2023-02-22T19:48:20.688Z,30.50
2023-02-22T19:50:22.641Z,31.33
2023-02-22T19:52:24.114Z,26.58
2023-02-22T19:54:25.784Z,25.90
2023-02-22T19:56:28.235Z,30.95
2023-02-22T19:58:32.410Z,28.38
2023-02-22T20:00:37.070Z,25.00
2023-02-22T20:02:39.958Z,28.30
2023-02-22T20:04:41.566Z,27.75
2023-02-22T20:06:44.018Z,30.88
2023-02-22T20:08:45.544Z,28.50
2023-02-22T20:10:47.006Z,30.65
2023-02-22T20:12:48.511Z,26.63
2023-02-22T20:14:50.019Z,31.38
2023-02-22T20:16:53.166Z,28.25
2023-02-22T20:18:55.093Z,28.48
2023-02-22T20:20:56.586Z,25.80
2023-02-22T20:22:58.058Z,31.27
2023-02-22T20:24:59.586Z,26.90
2023-02-22T20:27:01.057Z,25.02
2023-02-22T20:29:04.204Z,32.22
2023-02-22T20:31:11.147Z,25.85
2023-02-22T20:33:13.953Z,27.90
2023-02-22T20:35:16.502Z,25.30
2023-02-22T20:37:18.261Z,26.20
2023-02-22T20:39:20.028Z,28.20
2023-02-22T20:41:26.154Z,24.95
2023-02-22T20:43:27.614Z,28.17
2023-02-22T20:45:29.100Z,27.15
2023-02-22T20:47:30.755Z,30.25
2023-02-22T20:49:32.529Z,25.85
2023-02-22T20:51:35.365Z,31.55
2023-02-22T20:53:41.349Z,29.02
2023-02-22T20:55:52.984Z,27.13
2023-02-22T20:57:54.492Z,28.90
2023-02-22T20:59:56.055Z,27.48
2023-02-22T21:01:57.671Z,32.03
2023-02-22T21:04:03.895Z,25.05
2023-02-22T21:06:06.707Z,27.27
2023-02-22T21:08:08.197Z,24.98
2023-02-22T21:10:09.666Z,26.05
2023-02-22T21:12:13.509Z,26.65
2023-02-22T21:14:18.724Z,31.15
2023-02-22T21:16:31.445Z,28.25
2023-02-22T21:18:33.135Z,27.48
2023-02-22T21:20:35.376Z,25.85
2023-02-22T21:22:38.587Z,24.98
2023-02-22T21:24:40.260Z,28.10
2023-02-22T21:26:41.734Z,23.88
2023-02-22T21:28:51.205Z,24.67
2023-02-22T21:30:53.156Z,30.02
2023-02-22T21:32:55.491Z,25.08
2023-02-22T21:34:57.407Z,28.25
2023-02-22T21:36:58.884Z,30.10
2023-02-22T21:39:08.218Z,25.90
2023-02-22T21:41:15.324Z,29.48
2023-02-22T21:43:16.779Z,27.10
2023-02-22T21:45:19.761Z,28.42
2023-02-22T21:47:21.365Z,27.40
2023-02-22T21:49:23.270Z,30.35
2023-02-22T21:51:32.793Z,29.08
2023-02-22T21:53:34.390Z,26.85
2023-02-22T21:55:38.101Z,27.88
2023-02-22T21:57:40.689Z,43.90
2023-02-22T21:59:42.149Z,33.78
2023-02-22T22:01:55.447Z,26.40
2023-02-22T22:04:01.390Z,30.95
2023-02-22T22:06:09.825Z,35.55
2023-02-22T22:08:19.345Z,34.03
2023-02-22T22:10:26.790Z,32.78
2023-02-22T22:12:37.422Z,28.45
2023-02-22T22:14:40.525Z,29.48
2023-02-22T22:16:41.991Z,27.63
2023-02-22T22:18:44.770Z,24.48
2023-02-22T22:20:46.236Z,32.65
2023-02-22T22:22:47.760Z,30.50
2023-02-22T22:24:50.012Z,26.67
2023-02-22T22:26:54.766Z,26.92
2023-02-22T22:28:59.267Z,26.88
2023-02-22T22:31:00.834Z,34.58
2023-02-22T22:33:06.402Z,34.33
2023-02-22T22:35:14.738Z,41.35
2023-02-22T22:37:16.653Z,40.08
2023-02-22T22:39:20.895Z,39.67
2023-02-22T22:41:23.390Z,36.97
2023-02-22T22:43:25.019Z,37.42
2023-02-22T22:45:26.608Z,32.47
2023-02-22T22:47:28.645Z,33.88
2023-02-22T22:49:32.536Z,39.63
2023-02-22T22:51:34.304Z,33.65
2023-02-22T22:53:41.566Z,33.75
2023-02-22T22:55:43.256Z,36.53
2023-02-22T22:57:44.724Z,35.22
2023-02-22T22:59:46.169Z,36.60
2023-02-22T23:01:47.661Z,38.97
2023-02-22T23:03:55.825Z,30.77
2023-02-22T23:06:02.140Z,39.97
2023-02-22T23:08:04.967Z,35.70
2023-02-22T23:10:07.073Z,41.58
2023-02-22T23:12:08.860Z,39.53
2023-02-22T23:14:21.229Z,38.05
2023-02-22T23:16:24.619Z,38.30
2023-02-22T23:18:26.178Z,33.20
2023-02-22T23:20:27.683Z,41.33
2023-02-22T23:22:29.255Z,37.85
2023-02-22T23:24:33.434Z,34.20
2023-02-22T23:26:35.172Z,35.17
2023-02-22T23:28:38.480Z,31.33
2023-02-22T23:30:41.046Z,33.95
2023-02-22T23:32:42.604Z,32.17
2023-02-22T23:34:44.182Z,32.20
2023-02-22T23:36:46.664Z,30.67
2023-02-22T23:38:48.625Z,31.63
2023-02-22T23:40:53.926Z,33.63
2023-02-22T23:42:55.630Z,34.33
2023-02-22T23:44:57.234Z,33.00
2023-02-22T23:46:58.759Z,29.13
2023-02-22T23:49:03.154Z,33.35
2023-02-22T23:51:09.341Z,30.98
2023-02-22T23:53:15.160Z,36.33
2023-02-22T23:55:20.724Z,36.33
2023-02-22T23:57:24.082Z,35.95
2023-02-22T23:59:27.131Z,37.83
